Schaerbeek, Belgium
Current Conditions -  °F | °C
As of 12:50 PM on Friday 19 Dec 2014 (Local Time) from EBBR Reporting Station
Light Rain Light Rain  
Wind Chill:   Ceiling: 900
Heat Index:   Visibility: 4mi
Dew Point:   Wind: 13mph
Humidity: 93%   Direction: 310°NW
Pressure: 29.91"   Gusts: NA
Location:  50.86°N, 4.39°E
Report Text: EBBR 191150Z 31011KT 7000 -RA SCT005 BKN009 08/07 Q1013 REDZ BECMG NSW BKN020
Loading
Personal Weather Stations






























Interactive Weather Map New forecast layout! Learn more

10-Day Weather Forecast

Advertisements
Track Severe Weather on mobile